createdAt,value
2018-09-15T00:01:06.077Z,81.62
2018-09-15T00:04:09.217Z,83.16
2018-09-15T00:07:12.395Z,82.67
2018-09-15T00:10:15.498Z,80.82
2018-09-15T00:13:19.668Z,80.26
2018-09-15T00:16:22.851Z,80.60
2018-09-15T00:19:26.105Z,81.87
2018-09-15T00:22:29.185Z,82.28
2018-09-15T00:25:32.248Z,82.76
2018-09-15T00:28:35.473Z,83.01
2018-09-15T00:31:38.635Z,84.15
2018-09-15T00:34:41.722Z,84.83
2018-09-15T00:37:44.871Z,84.33
2018-09-15T00:40:48.020Z,84.00
2018-09-15T00:43:52.229Z,84.68
2018-09-15T00:46:55.410Z,84.48
2018-09-15T00:49:58.568Z,85.74
2018-09-15T00:53:01.684Z,86.49
2018-09-15T00:56:04.872Z,87.49
2018-09-15T00:59:08.093Z,88.48
2018-09-15T01:02:11.203Z,87.76
2018-09-15T01:05:14.190Z,87.54
2018-09-15T01:08:17.384Z,87.78
2018-09-15T01:11:20.529Z,86.86
2018-09-15T01:14:23.685Z,88.53
2018-09-15T01:17:26.782Z,88.39
2018-09-15T01:20:30.001Z,87.88
2018-09-15T01:23:33.468Z,86.62
2018-09-15T01:26:36.572Z,85.79
2018-09-15T01:29:39.661Z,85.13
2018-09-15T01:32:42.776Z,86.22
2018-09-15T01:35:45.855Z,86.49
2018-09-15T01:38:49.046Z,86.61
2018-09-15T01:41:52.087Z,87.64
2018-09-15T01:44:55.197Z,89.62
2018-09-15T01:47:58.276Z,92.69
2018-09-15T01:51:01.392Z,91.94
2018-09-15T01:54:04.584Z,89.81
2018-09-15T01:57:07.849Z,87.00
2018-09-15T02:00:10.921Z,88.86
2018-09-15T02:03:14.101Z,87.24
2018-09-15T02:06:17.482Z,86.80
2018-09-15T02:09:20.592Z,87.42
2018-09-15T02:12:23.693Z,89.69
2018-09-15T02:15:26.929Z,90.43
2018-09-15T02:18:30.433Z,89.28
2018-09-15T02:21:33.734Z,92.21
2018-09-15T02:24:36.867Z,94.32
2018-09-15T02:27:40.360Z,89.87
2018-09-15T02:30:44.502Z,86.95
2018-09-15T02:33:47.738Z,85.55
2018-09-15T02:36:51.909Z,85.37
2018-09-15T02:39:55.978Z,87.96
2018-09-15T02:42:59.107Z,84.32
2018-09-15T02:46:03.426Z,86.76
2018-09-15T02:49:06.711Z,86.87
2018-09-15T02:52:09.862Z,86.54
2018-09-15T02:55:13.095Z,86.79
2018-09-15T02:58:16.418Z,87.74
2018-09-15T03:01:19.845Z,87.26
2018-09-15T03:04:23.074Z,87.74
2018-09-15T03:07:26.193Z,87.44
2018-09-15T03:10:29.576Z,86.55
2018-09-15T03:13:32.767Z,87.49
2018-09-15T03:16:36.209Z,85.66
2018-09-15T03:19:39.278Z,83.45
2018-09-15T03:22:42.470Z,84.18
2018-09-15T03:25:45.714Z,82.27
2018-09-15T03:28:48.806Z,82.31
2018-09-15T03:31:51.872Z,84.41
2018-09-15T03:34:55.248Z,86.67
2018-09-15T03:37:58.346Z,88.14
2018-09-15T03:41:01.485Z,87.83
2018-09-15T03:44:04.578Z,86.31
2018-09-15T03:47:07.754Z,85.30
2018-09-15T03:50:10.938Z,84.06
2018-09-15T03:53:15.844Z,82.73
2018-09-15T03:56:19.026Z,83.91
2018-09-15T03:59:22.214Z,83.15
2018-09-15T04:02:25.379Z,84.92
2018-09-15T04:06:00.022Z,88.40
2018-09-15T04:09:04.775Z,87.38
2018-09-15T04:12:08.071Z,87.03
2018-09-15T04:15:11.161Z,87.50
2018-09-15T04:18:15.623Z,88.98
2018-09-15T04:21:18.752Z,87.15
2018-09-15T04:24:21.761Z,86.17
2018-09-15T04:27:24.798Z,86.83
2018-09-15T04:30:27.898Z,86.64
2018-09-15T04:33:31.083Z,86.66
2018-09-15T04:36:35.216Z,87.72
2018-09-15T04:39:38.332Z,88.03
2018-09-15T04:42:41.563Z,89.26
2018-09-15T04:45:44.798Z,89.17
2018-09-15T04:48:48.198Z,88.29
2018-09-15T04:51:51.326Z,88.87
2018-09-15T04:54:54.893Z,89.95
2018-09-15T04:57:58.299Z,89.78
2018-09-15T05:01:01.468Z,90.03
2018-09-15T05:04:04.833Z,95.60
2018-09-15T05:07:08.093Z,92.55
2018-09-15T05:10:11.224Z,89.74
2018-09-15T05:13:14.417Z,91.10
2018-09-15T05:16:17.636Z,90.17
2018-09-15T05:19:20.827Z,88.66
2018-09-15T05:22:23.888Z,88.14
2018-09-15T05:25:27.054Z,90.30
2018-09-15T05:28:30.276Z,87.40
2018-09-15T05:31:33.477Z,83.93
2018-09-15T05:34:36.600Z,88.92
2018-09-15T05:37:39.765Z,89.63
2018-09-15T05:40:42.758Z,88.74
2018-09-15T05:43:45.849Z,85.93
2018-09-15T05:46:48.934Z,84.65
2018-09-15T05:49:52.112Z,87.28
2018-09-15T05:52:55.217Z,85.79
2018-09-15T05:55:58.365Z,86.68
2018-09-15T05:59:01.441Z,89.18
2018-09-15T06:02:04.515Z,86.34
2018-09-15T06:05:07.635Z,85.68
2018-09-15T06:08:10.679Z,86.69
2018-09-15T06:11:13.914Z,87.25
2018-09-15T06:14:16.984Z,86.43
2018-09-15T06:17:20.091Z,85.23
2018-09-15T06:20:23.259Z,85.91
2018-09-15T06:23:26.289Z,83.05
2018-09-15T06:26:31.228Z,82.83
2018-09-15T06:29:39.590Z,82.02
2018-09-15T06:32:42.772Z,78.27
2018-09-15T06:35:46.026Z,76.86
2018-09-15T06:38:50.286Z,79.40
2018-09-15T06:41:53.464Z,79.99
2018-09-15T06:45:06.880Z,76.60
2018-09-15T06:48:10.143Z,77.50
2018-09-15T06:51:13.351Z,73.63
2018-09-15T06:58:18.980Z,70.65
2018-09-15T07:01:22.391Z,71.35
2018-09-15T07:04:25.588Z,67.36
2018-09-15T07:07:37.358Z,69.87
2018-09-15T07:10:40.787Z,75.24
2018-09-15T07:13:49.789Z,73.95
2018-09-15T07:16:53.029Z,75.75
2018-09-15T07:19:56.330Z,76.33
2018-09-15T07:22:59.458Z,76.14
2018-09-15T07:26:02.740Z,75.54
2018-09-15T07:29:06.002Z,76.10
2018-09-15T07:32:11.986Z,74.37
2018-09-15T07:35:15.202Z,72.70
2018-09-15T07:38:18.281Z,74.50
2018-09-15T07:41:21.339Z,71.69
2018-09-15T07:44:24.619Z,72.70
2018-09-15T07:47:27.835Z,71.02
2018-09-15T07:50:31.036Z,74.35
2018-09-15T07:53:34.335Z,72.78
2018-09-15T07:56:37.550Z,72.64
2018-09-15T07:59:40.725Z,73.25
2018-09-15T08:02:43.808Z,70.50
2018-09-15T08:05:47.288Z,72.80
2018-09-15T08:08:50.389Z,71.60
2018-09-15T08:11:53.548Z,67.78
2018-09-15T08:14:56.702Z,68.78
2018-09-15T08:18:00.142Z,66.25
2018-09-15T08:21:03.406Z,68.35
2018-09-15T08:24:07.073Z,69.87
2018-09-15T08:27:10.243Z,69.19
2018-09-15T08:30:13.449Z,67.54
2018-09-15T08:33:16.637Z,66.54
2018-09-15T08:36:19.876Z,67.40
2018-09-15T08:39:23.076Z,65.12
2018-09-15T08:42:26.327Z,67.27
2018-09-15T08:45:29.975Z,65.87
2018-09-15T08:48:33.164Z,64.34
2018-09-15T08:51:36.392Z,65.83
2018-09-15T08:54:39.728Z,65.72
2018-09-15T08:57:42.866Z,65.52
2018-09-15T09:00:46.210Z,64.53
2018-09-15T09:03:49.469Z,63.34
2018-09-15T09:06:52.590Z,62.57
2018-09-15T09:09:55.944Z,64.99
2018-09-15T09:12:59.223Z,62.60
2018-09-15T09:16:02.475Z,58.68
2018-09-15T09:19:05.738Z,59.61
2018-09-15T09:22:09.059Z,62.99
2018-09-15T09:25:12.454Z,62.49
2018-09-15T09:28:15.903Z,62.41
2018-09-15T09:31:19.239Z,62.32
2018-09-15T09:34:29.981Z,61.12
2018-09-15T09:37:33.210Z,62.04
2018-09-15T09:40:36.465Z,64.51
2018-09-15T09:43:39.787Z,60.94
2018-09-15T09:46:42.949Z,56.56
2018-09-15T09:49:46.171Z,59.40
2018-09-15T09:52:49.309Z,59.22
2018-09-15T09:55:52.643Z,58.62
2018-09-15T09:58:55.844Z,58.78
2018-09-15T10:02:07.552Z,61.49
2018-09-15T10:05:10.972Z,62.38
2018-09-15T10:08:14.233Z,61.53
2018-09-15T10:11:17.307Z,60.56
2018-09-15T10:14:20.444Z,62.93
2018-09-15T10:17:24.518Z,62.93
2018-09-15T10:20:27.615Z,63.83
2018-09-15T10:23:30.757Z,63.53
2018-09-15T10:26:33.829Z,64.48
2018-09-15T10:29:37.094Z,63.52
2018-09-15T10:32:40.372Z,63.37
2018-09-15T10:35:43.816Z,65.62
2018-09-15T10:38:46.957Z,65.27
2018-09-15T10:41:50.266Z,65.62
2018-09-15T10:44:53.475Z,64.58
2018-09-15T10:47:56.653Z,62.92
2018-09-15T10:50:59.864Z,63.01
2018-09-15T10:54:03.038Z,63.52
2018-09-15T10:57:06.462Z,63.35
2018-09-15T11:00:10.686Z,63.15
2018-09-15T11:03:13.875Z,62.88
2018-09-15T11:06:17.031Z,62.79
2018-09-15T11:09:20.393Z,62.58
2018-09-15T11:12:23.621Z,62.69
2018-09-15T11:15:26.809Z,61.75
2018-09-15T11:18:29.911Z,61.15
2018-09-15T11:21:33.216Z,58.22
2018-09-15T11:24:36.407Z,56.51
2018-09-15T11:27:39.542Z,56.47
2018-09-15T11:30:42.849Z,55.50
2018-09-15T11:33:46.089Z,55.85
2018-09-15T11:36:49.217Z,55.48
2018-09-15T11:39:52.307Z,58.27
2018-09-15T11:42:55.423Z,57.08
2018-09-15T11:45:58.555Z,58.85
2018-09-15T11:49:01.772Z,58.80
2018-09-15T11:52:04.901Z,58.22
2018-09-15T11:55:08.026Z,59.19
2018-09-15T11:58:11.193Z,57.54
2018-09-15T12:01:14.268Z,56.81
2018-09-15T12:04:17.577Z,59.90
2018-09-15T12:07:20.683Z,58.58
2018-09-15T12:10:23.742Z,57.41
2018-09-15T12:13:26.964Z,57.23
2018-09-15T12:16:30.041Z,58.55
2018-09-15T12:19:33.207Z,58.10
2018-09-15T12:22:36.387Z,59.11
2018-09-15T12:25:39.923Z,58.97
2018-09-15T12:28:43.178Z,60.03
2018-09-15T12:31:46.469Z,60.17
2018-09-15T12:34:49.642Z,59.62
2018-09-15T12:37:52.968Z,60.38
2018-09-15T12:40:57.120Z,59.16
2018-09-15T12:44:00.333Z,61.28
2018-09-15T12:47:03.446Z,61.28
2018-09-15T12:50:06.726Z,60.44
2018-09-15T12:53:09.933Z,60.91
2018-09-15T12:56:13.229Z,60.28
2018-09-15T12:59:16.482Z,60.05
2018-09-15T13:02:19.617Z,60.20
2018-09-15T13:05:22.856Z,60.53
2018-09-15T13:08:26.267Z,59.67
2018-09-15T13:11:29.564Z,59.91
2018-09-15T13:14:32.795Z,58.79
2018-09-15T13:17:36.195Z,58.89
2018-09-15T13:20:39.478Z,58.44
2018-09-15T13:23:42.703Z,57.78
2018-09-15T13:26:45.897Z,57.93
2018-09-15T13:29:49.272Z,59.61
2018-09-15T13:32:53.282Z,58.74
2018-09-15T13:35:56.332Z,59.92
2018-09-15T13:38:59.483Z,59.30
2018-09-15T13:42:02.964Z,59.21
2018-09-15T13:45:06.488Z,58.33
2018-09-15T13:48:09.683Z,57.34
2018-09-15T13:51:12.884Z,57.10
2018-09-15T13:54:16.494Z,57.12
2018-09-15T13:57:19.555Z,57.47
2018-09-15T14:00:22.817Z,58.05
2018-09-15T14:03:25.867Z,58.97
2018-09-15T14:06:29.014Z,60.29
2018-09-15T14:09:32.057Z,59.39
2018-09-15T14:12:35.181Z,58.82
2018-09-15T14:15:38.540Z,59.58
2018-09-15T14:18:41.919Z,60.35
2018-09-15T14:21:45.079Z,61.75
2018-09-15T14:24:48.197Z,60.25
2018-09-15T14:27:51.389Z,58.88
2018-09-15T14:30:54.592Z,57.95
2018-09-15T14:33:57.960Z,55.64
2018-09-15T14:37:01.042Z,53.48
2018-09-15T14:40:04.239Z,54.09
2018-09-15T14:43:07.407Z,57.73
2018-09-15T14:46:10.740Z,57.58
2018-09-15T14:49:13.861Z,55.90
2018-09-15T14:52:17.093Z,56.13
2018-09-15T14:55:20.339Z,56.40
2018-09-15T14:58:23.611Z,54.01
2018-09-15T15:01:26.835Z,51.23
2018-09-15T15:04:30.325Z,56.71
2018-09-15T15:07:34.042Z,57.52
2018-09-15T15:10:37.188Z,56.95
2018-09-15T15:13:40.456Z,56.97
2018-09-15T15:16:43.700Z,56.07
2018-09-15T15:19:46.881Z,54.81
2018-09-15T15:22:50.019Z,58.31
2018-09-15T15:25:53.350Z,58.47
2018-09-15T15:28:56.779Z,57.49
2018-09-15T15:32:00.096Z,55.26
2018-09-15T15:35:03.475Z,57.12
2018-09-15T15:38:07.990Z,58.13
2018-09-15T15:41:11.418Z,57.66
2018-09-15T15:44:14.836Z,59.30
2018-09-15T15:47:18.096Z,59.71
2018-09-15T15:50:21.729Z,62.25
2018-09-15T15:53:25.069Z,61.35
2018-09-15T15:56:31.237Z,61.52
2018-09-15T15:59:34.320Z,62.00
2018-09-15T16:02:37.442Z,61.74
2018-09-15T16:05:40.549Z,62.51
2018-09-15T16:08:43.715Z,62.09
2018-09-15T16:11:46.921Z,61.81
2018-09-15T16:14:49.959Z,62.86
2018-09-15T16:17:53.102Z,61.35
2018-09-15T16:20:56.267Z,60.36
2018-09-15T16:23:59.463Z,62.14
2018-09-15T16:27:02.608Z,61.24
2018-09-15T16:30:06.015Z,61.50
2018-09-15T16:33:09.222Z,62.67
2018-09-15T16:36:12.532Z,61.78
2018-09-15T16:39:15.865Z,60.28
2018-09-15T16:42:19.080Z,60.08
2018-09-15T16:45:23.234Z,61.22
2018-09-15T16:48:26.759Z,60.25
2018-09-15T16:51:30.870Z,61.64
2018-09-15T16:54:33.943Z,61.76
2018-09-15T16:57:37.063Z,60.44
2018-09-15T17:00:40.122Z,62.64
2018-09-15T17:03:44.222Z,61.44
2018-09-15T17:06:47.550Z,62.17
2018-09-15T17:09:50.708Z,63.66
2018-09-15T17:12:53.810Z,64.35
2018-09-15T17:15:57.014Z,66.27
2018-09-15T17:19:00.158Z,69.10
2018-09-15T17:22:03.293Z,69.73
2018-09-15T17:25:06.435Z,70.22
2018-09-15T17:28:09.666Z,71.65
2018-09-15T17:31:12.811Z,71.98
2018-09-15T17:34:15.774Z,71.95
2018-09-15T17:37:18.845Z,71.47
2018-09-15T17:40:22.115Z,71.40
2018-09-15T17:43:25.174Z,73.89
2018-09-15T17:46:28.250Z,76.15
2018-09-15T17:49:31.312Z,75.83
2018-09-15T17:52:34.667Z,75.98
2018-09-15T17:55:37.806Z,75.99
2018-09-15T17:58:40.961Z,76.10
2018-09-15T18:01:44.112Z,77.78
2018-09-15T18:04:47.199Z,76.59
2018-09-15T18:07:50.388Z,76.88
2018-09-15T18:10:53.802Z,77.33
2018-09-15T18:13:56.989Z,77.51
2018-09-15T18:17:00.057Z,78.04
2018-09-15T18:20:03.207Z,77.28
2018-09-15T18:23:06.618Z,77.86
2018-09-15T18:26:09.790Z,77.42
2018-09-15T18:29:13.068Z,76.80
2018-09-15T18:32:16.440Z,78.58
2018-09-15T18:35:19.697Z,78.89
2018-09-15T18:38:22.985Z,79.18
2018-09-15T18:41:26.246Z,78.14
2018-09-15T18:44:29.467Z,79.52
2018-09-15T18:47:32.588Z,78.58
2018-09-15T18:50:35.917Z,78.82
2018-09-15T18:53:39.132Z,78.59
2018-09-15T18:56:43.414Z,77.76
2018-09-15T18:59:46.845Z,79.33
2018-09-15T19:02:49.969Z,80.48
2018-09-15T19:05:53.313Z,80.75
2018-09-15T19:08:56.603Z,80.99
2018-09-15T19:11:59.730Z,81.18
2018-09-15T19:15:02.910Z,81.50
2018-09-15T19:18:06.118Z,80.91
2018-09-15T19:21:09.617Z,82.74
2018-09-15T19:24:12.790Z,82.24
2018-09-15T19:27:16.000Z,84.63
2018-09-15T19:30:19.305Z,82.73
2018-09-15T19:33:22.463Z,82.81
2018-09-15T19:36:25.616Z,82.40
2018-09-15T19:39:28.952Z,83.22
2018-09-15T19:42:32.078Z,83.94
2018-09-15T19:45:35.502Z,83.91
2018-09-15T19:48:38.646Z,83.71
2018-09-15T19:51:42.498Z,84.96
2018-09-15T19:54:45.699Z,84.60
2018-09-15T19:57:48.899Z,84.55
2018-09-15T20:00:52.075Z,84.07
2018-09-15T20:03:55.333Z,84.60
2018-09-15T20:06:58.620Z,85.76
2018-09-15T20:10:02.329Z,85.07
2018-09-15T20:13:05.978Z,84.08
2018-09-15T20:16:07.786Z,82.88
2018-09-15T20:19:09.439Z,84.85
2018-09-15T20:22:12.493Z,84.71
2018-09-15T20:25:15.818Z,86.79
2018-09-15T20:28:19.101Z,83.65
2018-09-15T20:31:22.329Z,83.91
2018-09-15T20:34:25.907Z,84.78
2018-09-15T20:37:29.300Z,84.34
2018-09-15T20:40:32.627Z,85.43
2018-09-15T20:43:35.987Z,85.52
2018-09-15T20:46:39.425Z,85.92
2018-09-15T20:49:42.598Z,87.07
2018-09-15T20:52:45.844Z,86.68
2018-09-15T20:55:49.091Z,85.45
2018-09-15T20:58:52.534Z,86.18
2018-09-15T21:01:55.796Z,84.75
2018-09-15T21:04:58.991Z,87.15
2018-09-15T21:08:02.259Z,86.34
2018-09-15T21:11:05.474Z,86.73
2018-09-15T21:14:08.678Z,87.60
2018-09-15T21:17:11.895Z,85.52
2018-09-15T21:20:15.475Z,85.14
2018-09-15T21:23:18.841Z,88.56
2018-09-15T21:26:22.097Z,86.78
2018-09-15T21:29:26.304Z,88.95
2018-09-15T21:32:29.422Z,88.27
2018-09-15T21:35:32.692Z,87.97
2018-09-15T21:38:36.061Z,86.75
2018-09-15T21:41:39.473Z,86.79
2018-09-15T21:44:42.678Z,86.90
2018-09-15T21:47:45.907Z,87.17
2018-09-15T21:50:49.170Z,87.16
2018-09-15T21:53:52.346Z,87.86
2018-09-15T21:56:56.569Z,88.39
2018-09-15T22:00:00.827Z,87.79
2018-09-15T22:03:04.100Z,89.41
2018-09-15T22:06:07.486Z,92.19
2018-09-15T22:09:11.880Z,90.50
2018-09-15T22:12:15.358Z,91.26
2018-09-15T22:15:24.972Z,89.15
2018-09-15T22:18:28.067Z,88.39
2018-09-15T22:21:31.356Z,89.59
2018-09-15T22:24:34.667Z,89.54
2018-09-15T22:27:37.804Z,90.81
2018-09-15T22:30:41.028Z,90.05
2018-09-15T22:33:44.182Z,91.67
2018-09-15T22:36:47.445Z,92.57
2018-09-15T22:39:50.732Z,92.46
2018-09-15T22:42:53.825Z,92.63
2018-09-15T22:45:57.117Z,92.25
2018-09-15T22:49:00.273Z,90.29
2018-09-15T22:52:03.466Z,90.68
2018-09-15T22:55:06.604Z,90.38
2018-09-15T22:58:09.787Z,91.50
2018-09-15T23:01:13.030Z,91.75
2018-09-15T23:04:16.759Z,92.23
2018-09-15T23:07:19.901Z,92.40
2018-09-15T23:10:23.118Z,92.30
2018-09-15T23:13:26.245Z,92.13
2018-09-15T23:16:29.392Z,91.72
2018-09-15T23:19:32.549Z,90.85
2018-09-15T23:22:35.865Z,92.77
2018-09-15T23:25:39.977Z,91.93
2018-09-15T23:28:43.150Z,92.69
2018-09-15T23:31:46.249Z,92.28
2018-09-15T23:34:49.689Z,91.21
2018-09-15T23:37:53.246Z,92.15
2018-09-15T23:40:56.494Z,91.52
2018-09-15T23:43:59.690Z,91.37
2018-09-15T23:47:02.990Z,92.10
2018-09-15T23:50:06.442Z,93.20
2018-09-15T23:53:09.708Z,91.25
2018-09-15T23:56:12.817Z,91.47
2018-09-15T23:59:16.298Z,92.89
